Time;durP1;ratioP1;P1;durP2;ratioP2;P2;SDS_P1;SDS_P2;PMS_P1;PMS_P2;Temp;Humidity;BMP_temperature;BMP_pressure;BME280_temperature;BME280_humidity;BME280_pressure;Samples;Min_cycle;Max_cycle;Signal;HPM_P1;HPM_P2
2021/04/09 00:00:53;;;;;;;2.43;1.40;;;;;;;;;;5073648;28;20405;-68
2021/04/09 00:03:19;;;;;;;1.90;1.60;;;;;;;;;;5092694;28;20400;-69
2021/04/09 00:05:45;;;;;;;2.03;0.93;;;;;;;;;;5093499;28;20458;-67
2021/04/09 00:08:11;;;;;;;2.70;0.97;;;;;;;;;;5074553;28;20505;-66
2021/04/09 00:10:37;;;;;;;3.93;1.10;;;;;;;;;;5073944;28;20522;-68
2021/04/09 00:13:03;;;;;;;1.40;1.23;;;;;;;;;;5059469;28;20461;-69
2021/04/09 00:15:29;;;;;;;2.40;1.30;;;;;;;;;;5076302;28;20409;-68
2021/04/09 00:17:55;;;;;;;2.43;1.47;;;;;;;;;;5086295;28;20518;-68
2021/04/09 00:20:23;;;;;;;2.60;1.60;;;;;;;;;;5095743;28;20461;-69
2021/04/09 00:22:49;;;;;;;2.30;2.07;;;;;;;;;;5096948;28;20469;-68
2021/04/09 00:25:16;;;;;;;3.00;1.20;;;;;;;;;;5093008;28;20409;-69
2021/04/09 00:27:43;;;;;;;1.83;1.43;;;;;;;;;;5080048;28;20426;-68
2021/04/09 00:30:10;;;;;;;5.07;2.33;;;;;;;;;;5092754;28;20379;-68
2021/04/09 00:32:36;;;;;;;1.07;0.97;;;;;;;;;;5091946;28;20491;-69
2021/04/09 00:35:02;;;;;;;4.33;1.80;;;;;;;;;;5090824;28;20401;-68
2021/04/09 00:37:28;;;;;;;2.10;2.00;;;;;;;;;;5080682;28;20426;-69
2021/04/09 00:39:54;;;;;;;2.20;2.00;;;;;;;;;;5054261;28;20394;-69
2021/04/09 00:42:21;;;;;;;1.83;1.10;;;;;;;;;;5071764;28;20855;-68
2021/04/09 00:44:46;;;;;;;2.23;1.17;;;;;;;;;;5072655;28;20839;-68
2021/04/09 00:47:13;;;;;;;4.70;2.53;;;;;;;;;;5072712;28;20488;-68
2021/04/09 00:49:39;;;;;;;1.43;1.23;;;;;;;;;;5083207;28;20393;-68
2021/04/09 00:52:06;;;;;;;2.03;1.77;;;;;;;;;;5091324;28;20452;-68
2021/04/09 00:54:32;;;;;;;5.40;1.73;;;;;;;;;;5089412;28;20414;-68
2021/04/09 00:59:37;;;;;;;1.93;1.40;;;;;;;;;;5057115;28;20847;-74
2021/04/09 01:02:03;;;;;;;1.70;1.23;;;;;;;;;;5051106;28;20467;-75
2021/04/09 01:04:32;;;;;;;1.37;1.27;;;;;;;;;;5050870;28;20412;-76
2021/04/09 01:06:58;;;;;;;3.10;1.60;;;;;;;;;;5054084;28;20959;-75
2021/04/09 01:09:24;;;;;;;1.67;1.57;;;;;;;;;;5072862;28;20748;-74
2021/04/09 01:11:50;;;;;;;1.30;1.20;;;;;;;;;;5072397;28;20462;-75
2021/04/09 01:14:16;;;;;;;1.20;1.10;;;;;;;;;;5054746;28;20977;-75
2021/04/09 01:17:01;;;;;;;2.30;1.43;;;;;;;;;;5051035;28;20411;-75
2021/04/09 01:19:46;;;;;;;1.57;1.47;;;;;;;;;;5035279;28;20406;-76
2021/04/09 01:22:12;;;;;;;1.77;1.67;;;;;;;;;;5041704;28;20431;-78
2021/04/09 01:25:00;;;;;;;1.73;1.13;;;;;;;;;;5078815;28;20445;-73
2021/04/09 01:27:46;;;;;;;0.80;0.77;;;;;;;;;;5060692;28;20438;-72
2021/04/09 01:30:12;;;;;;;2.73;2.50;;;;;;;;;;5049828;28;20504;-72
2021/04/09 01:32:39;;;;;;;2.17;1.33;;;;;;;;;;5053905;28;20527;-71
2021/04/09 01:35:09;;;;;;;15.47;3.67;;;;;;;;;;5070074;28;20409;-73
2021/04/09 01:37:39;;;;;;;1.10;1.00;;;;;;;;;;5071999;28;20427;-72
2021/04/09 01:40:14;;;;;;;1.70;1.37;;;;;;;;;;5071946;28;20413;-73
2021/04/09 01:42:40;;;;;;;3.50;1.27;;;;;;;;;;5072582;28;20427;-75
2021/04/09 01:45:08;;;;;;;1.00;0.90;;;;;;;;;;5062635;28;20413;-82
2021/04/09 01:47:35;;;;;;;1.43;1.20;;;;;;;;;;5077777;28;20429;-77
2021/04/09 01:50:01;;;;;;;3.33;1.60;;;;;;;;;;5059153;28;20500;-76
2021/04/09 01:52:28;;;;;;;3.40;1.23;;;;;;;;;;5072878;28;20464;-76
2021/04/09 01:54:56;;;;;;;0.90;0.70;;;;;;;;;;5071461;28;20417;-76
2021/04/09 01:57:23;;;;;;;1.63;1.53;;;;;;;;;;5066980;28;20425;-74
2021/04/09 01:59:49;;;;;;;1.70;1.13;;;;;;;;;;5050313;28;20964;-76
2021/04/09 02:02:16;;;;;;;3.33;2.10;;;;;;;;;;5048520;28;20471;-78
2021/04/09 02:04:42;;;;;;;1.40;1.17;;;;;;;;;;5072838;28;21003;-77
2021/04/09 02:07:09;;;;;;;1.33;0.87;;;;;;;;;;5068704;28;20464;-78
2021/04/09 02:09:36;;;;;;;4.93;1.80;;;;;;;;;;5042914;28;20777;-77
2021/04/09 02:12:02;;;;;;;2.67;1.60;;;;;;;;;;5073244;28;20447;-76
2021/04/09 02:14:29;;;;;;;2.60;2.20;;;;;;;;;;5057011;28;20495;-77
2021/04/09 02:16:57;;;;;;;3.70;1.20;;;;;;;;;;5054470;28;20448;-75
2021/04/09 02:19:26;;;;;;;2.43;1.73;;;;;;;;;;5055905;28;20435;-73
2021/04/09 02:21:52;;;;;;;2.83;1.20;;;;;;;;;;5033502;28;20414;-75
2021/04/09 02:24:18;;;;;;;2.87;2.50;;;;;;;;;;5050548;28;20411;-75
2021/04/09 02:26:44;;;;;;;1.30;1.20;;;;;;;;;;5062989;28;20493;-78
2021/04/09 02:29:11;;;;;;;4.07;1.70;;;;;;;;;;5037440;28;20410;-77
2021/04/09 02:31:38;;;;;;;1.20;0.93;;;;;;;;;;5070368;28;20453;-77
2021/04/09 02:34:04;;;;;;;2.40;0.93;;;;;;;;;;5073124;28;20461;-76
2021/04/09 02:36:31;;;;;;;2.20;0.90;;;;;;;;;;5073989;28;20409;-78
2021/04/09 02:39:12;;;;;;;4.23;1.50;;;;;;;;;;5061219;28;20390;-80
2021/04/09 02:41:41;;;;;;;1.57;0.93;;;;;;;;;;5074199;28;20397;-77
2021/04/09 02:44:07;;;;;;;2.63;1.50;;;;;;;;;;5072031;28;20406;-76
2021/04/09 02:46:53;;;;;;;1.53;1.43;;;;;;;;;;5071506;28;20959;-76
2021/04/09 02:49:27;;;;;;;4.33;1.53;;;;;;;;;;5073470;28;20386;-77
2021/04/09 02:51:55;;;;;;;3.23;1.63;;;;;;;;;;5073384;28;20967;-76
2021/04/09 02:54:21;;;;;;;1.17;0.97;;;;;;;;;;5064680;28;20423;-75
2021/04/09 02:56:48;;;;;;;1.23;1.10;;;;;;;;;;5064779;28;20384;-77
2021/04/09 02:59:15;;;;;;;2.80;1.60;;;;;;;;;;5072036;28;20448;-77
2021/04/09 03:01:41;;;;;;;1.57;1.30;;;;;;;;;;5043323;28;20492;-77
2021/04/09 03:04:07;;;;;;;2.03;1.90;;;;;;;;;;5075480;28;20445;-76
2021/04/09 03:06:36;;;;;;;3.10;2.00;;;;;;;;;;5055790;28;20432;-75
2021/04/09 03:09:02;;;;;;;4.03;2.27;;;;;;;;;;5060361;28;20424;-76
2021/04/09 03:11:28;;;;;;;1.77;1.67;;;;;;;;;;5060408;28;20452;-76
2021/04/09 03:13:54;;;;;;;2.63;1.70;;;;;;;;;;5053048;28;20490;-76
2021/04/09 03:16:21;;;;;;;3.37;1.00;;;;;;;;;;5074713;28;20472;-74
2021/04/09 03:18:47;;;;;;;1.63;1.50;;;;;;;;;;5076341;28;20917;-76
2021/04/09 03:21:13;;;;;;;1.17;1.03;;;;;;;;;;5056337;28;20401;-76
2021/04/09 03:23:39;;;;;;;5.77;1.73;;;;;;;;;;5072973;28;20444;-76
2021/04/09 03:26:05;;;;;;;2.17;0.90;;;;;;;;;;5069139;28;20460;-75
2021/04/09 03:28:31;;;;;;;3.20;2.13;;;;;;;;;;5074266;28;20890;-77
2021/04/09 03:30:57;;;;;;;3.83;1.60;;;;;;;;;;5059534;28;20488;-76
2021/04/09 03:33:24;;;;;;;3.67;1.87;;;;;;;;;;5072847;28;20527;-77
2021/04/09 03:35:50;;;;;;;3.00;2.33;;;;;;;;;;5066550;28;20415;-77
2021/04/09 03:38:17;;;;;;;2.03;1.30;;;;;;;;;;5073602;28;20399;-77
2021/04/09 03:40:42;;;;;;;1.27;1.17;;;;;;;;;;5055838;28;20387;-77
2021/04/09 03:43:09;;;;;;;2.00;1.83;;;;;;;;;;5074388;28;20421;-76
2021/04/09 03:45:35;;;;;;;5.57;2.03;;;;;;;;;;5074126;28;20394;-76
2021/04/09 03:48:01;;;;;;;1.93;1.83;;;;;;;;;;5048785;28;20434;-76
2021/04/09 03:50:27;;;;;;;2.17;1.20;;;;;;;;;;5056099;28;20421;-75
2021/04/09 03:52:55;;;;;;;1.47;1.37;;;;;;;;;;5055656;28;20533;-76
2021/04/09 03:55:21;;;;;;;1.13;1.03;;;;;;;;;;5037765;28;20383;-76
2021/04/09 03:57:47;;;;;;;1.50;1.40;;;;;;;;;;5046399;28;20783;-75
2021/04/09 04:00:13;;;;;;;2.37;1.07;;;;;;;;;;5067866;28;20513;-76
2021/04/09 04:02:39;;;;;;;1.83;1.20;;;;;;;;;;5058704;28;20893;-76
2021/04/09 04:05:06;;;;;;;2.53;1.80;;;;;;;;;;5074063;28;20417;-74
2021/04/09 04:07:32;;;;;;;4.33;3.23;;;;;;;;;;5074131;28;20416;-79
2021/04/09 04:09:58;;;;;;;4.43;4.00;;;;;;;;;;5068633;28;20388;-77
2021/04/09 04:12:26;;;;;;;1.47;1.27;;;;;;;;;;5073808;28;20453;-74
2021/04/09 04:14:52;;;;;;;3.73;2.47;;;;;;;;;;5051355;28;20453;-75
2021/04/09 04:17:19;;;;;;;4.23;2.30;;;;;;;;;;5052947;28;20461;-74
2021/04/09 04:19:45;;;;;;;2.93;1.90;;;;;;;;;;5071906;28;20457;-78
2021/04/09 04:22:11;;;;;;;2.87;1.97;;;;;;;;;;5056666;28;20406;-76
2021/04/09 04:24:37;;;;;;;1.73;1.43;;;;;;;;;;5054074;28;20448;-75
2021/04/09 04:27:03;;;;;;;1.47;1.27;;;;;;;;;;5052701;28;20498;-74
2021/04/09 04:29:29;;;;;;;1.20;1.10;;;;;;;;;;5052776;28;20432;-74
2021/04/09 04:31:55;;;;;;;3.27;2.10;;;;;;;;;;5070405;28;20955;-73
2021/04/09 04:34:21;;;;;;;1.60;1.30;;;;;;;;;;5052981;28;20465;-74
2021/04/09 04:36:47;;;;;;;1.43;0.80;;;;;;;;;;5071545;28;20414;-76
2021/04/09 04:39:13;;;;;;;2.00;1.83;;;;;;;;;;5071761;28;20391;-73
2021/04/09 04:41:39;;;;;;;2.50;2.10;;;;;;;;;;5069829;28;20464;-73
2021/04/09 04:44:05;;;;;;;4.93;2.77;;;;;;;;;;5091079;23;20489;-67
2021/04/09 04:46:31;;;;;;;1.30;1.20;;;;;;;;;;5093532;28;20403;-68
2021/04/09 04:48:57;;;;;;;2.90;2.63;;;;;;;;;;5084558;28;20452;-68
2021/04/09 04:51:23;;;;;;;1.53;1.43;;;;;;;;;;5093549;28;20472;-72
2021/04/09 04:53:49;;;;;;;2.90;2.70;;;;;;;;;;5086724;28;20410;-74
2021/04/09 04:56:14;;;;;;;2.90;1.53;;;;;;;;;;5064253;28;20400;-74
2021/04/09 04:58:40;;;;;;;2.70;1.77;;;;;;;;;;5081106;28;20421;-74
2021/04/09 05:01:06;;;;;;;1.13;1.03;;;;;;;;;;5082429;28;20414;-73
2021/04/09 05:03:32;;;;;;;6.67;2.90;;;;;;;;;;5089294;28;20462;-74
2021/04/09 05:05:58;;;;;;;2.20;1.27;;;;;;;;;;5087600;28;20422;-74
2021/04/09 05:08:24;;;;;;;1.40;1.30;;;;;;;;;;5089723;28;20451;-73
2021/04/09 05:10:50;;;;;;;2.53;1.17;;;;;;;;;;5064152;28;21550;-74
2021/04/09 05:13:16;;;;;;;2.93;1.10;;;;;;;;;;5081982;28;21192;-74
2021/04/09 05:15:42;;;;;;;2.93;1.73;;;;;;;;;;5063070;28;20478;-75
2021/04/09 05:18:08;;;;;;;4.67;1.33;;;;;;;;;;5063410;28;20405;-75
2021/04/09 05:20:34;;;;;;;2.43;0.90;;;;;;;;;;5079059;28;20462;-75
2021/04/09 05:23:00;;;;;;;1.90;1.17;;;;;;;;;;5061718;28;20970;-74
2021/04/09 05:25:26;;;;;;;3.40;3.10;;;;;;;;;;5079907;28;20429;-74
2021/04/09 05:27:52;;;;;;;2.30;1.40;;;;;;;;;;5080424;28;20420;-69
2021/04/09 05:30:18;;;;;;;1.63;1.40;;;;;;;;;;5087870;28;20907;-67
2021/04/09 05:32:44;;;;;;;3.13;1.07;;;;;;;;;;5080276;28;20491;-68
2021/04/09 05:35:10;;;;;;;2.10;1.30;;;;;;;;;;5086470;28;20465;-68
2021/04/09 05:37:36;;;;;;;2.70;1.20;;;;;;;;;;5087137;28;20961;-69
2021/04/09 05:40:03;;;;;;;3.67;3.37;;;;;;;;;;5086112;28;20436;-69
2021/04/09 05:42:28;;;;;;;2.50;1.80;;;;;;;;;;5086040;28;20810;-68
2021/04/09 05:44:54;;;;;;;2.90;2.13;;;;;;;;;;5091136;28;20437;-67
2021/04/09 05:47:20;;;;;;;0.90;0.80;;;;;;;;;;5085676;28;20490;-69
2021/04/09 05:49:46;;;;;;;4.30;2.60;;;;;;;;;;5087744;28;20416;-70
2021/04/09 05:52:12;;;;;;;3.00;1.90;;;;;;;;;;5088750;28;20463;-70
2021/04/09 05:54:40;;;;;;;13.30;1.67;;;;;;;;;;5082430;28;20480;-71
2021/04/09 05:57:06;;;;;;;1.70;1.43;;;;;;;;;;5089436;28;20383;-69
2021/04/09 05:59:32;;;;;;;3.67;2.23;;;;;;;;;;5086655;28;20411;-69
2021/04/09 06:01:58;;;;;;;3.17;2.87;;;;;;;;;;5080656;28;20428;-69
2021/04/09 06:04:24;;;;;;;1.23;0.83;;;;;;;;;;5087154;28;20436;-68
2021/04/09 06:06:50;;;;;;;4.87;2.97;;;;;;;;;;5076774;28;20566;-68
2021/04/09 06:09:16;;;;;;;3.17;1.27;;;;;;;;;;5093268;28;20508;-69
2021/04/09 06:11:42;;;;;;;1.83;1.20;;;;;;;;;;5089517;28;20454;-69
2021/04/09 06:14:08;;;;;;;4.90;1.80;;;;;;;;;;5100958;28;20429;-69
2021/04/09 06:16:34;;;;;;;1.80;1.30;;;;;;;;;;5092950;28;20776;-68
2021/04/09 06:19:01;;;;;;;8.00;2.33;;;;;;;;;;5084941;28;20813;-69
2021/04/09 06:21:27;;;;;;;2.97;1.40;;;;;;;;;;5085205;28;20455;-68
2021/04/09 06:23:53;;;;;;;2.33;2.13;;;;;;;;;;5088611;28;20441;-68
2021/04/09 06:26:19;;;;;;;2.43;1.40;;;;;;;;;;5089289;28;20406;-68
2021/04/09 06:28:45;;;;;;;1.30;0.90;;;;;;;;;;5088041;28;20417;-68
2021/04/09 06:31:11;;;;;;;1.67;1.57;;;;;;;;;;5087743;28;20491;-69
2021/04/09 06:33:37;;;;;;;1.17;1.07;;;;;;;;;;5068711;28;20424;-68
2021/04/09 06:36:03;;;;;;;4.93;2.50;;;;;;;;;;5088635;28;20421;-67
2021/04/09 06:38:29;;;;;;;1.00;0.90;;;;;;;;;;5090509;28;20412;-68
2021/04/09 06:40:56;;;;;;;1.57;1.47;;;;;;;;;;5091549;28;20448;-68
2021/04/09 06:43:23;;;;;;;1.33;1.23;;;;;;;;;;5099478;28;20466;-68
2021/04/09 06:45:50;;;;;;;1.40;1.20;;;;;;;;;;5100320;28;20422;-68
2021/04/09 06:48:16;;;;;;;0.80;0.70;;;;;;;;;;5086939;28;20803;-68
2021/04/09 06:50:42;;;;;;;0.93;0.70;;;;;;;;;;5083263;28;20414;-68
2021/04/09 06:53:08;;;;;;;1.30;1.20;;;;;;;;;;5096275;28;20452;-69
2021/04/09 06:55:34;;;;;;;1.93;1.50;;;;;;;;;;5073877;28;21004;-70
2021/04/09 06:58:01;;;;;;;1.87;1.67;;;;;;;;;;5074614;28;20439;-67
2021/04/09 07:00:31;;;;;;;1.30;1.20;;;;;;;;;;5093365;28;20870;-67
2021/04/09 07:02:57;;;;;;;2.10;1.90;;;;;;;;;;5093071;28;20404;-67
2021/04/09 07:05:23;;;;;;;2.10;1.90;;;;;;;;;;5070178;28;20459;-69
2021/04/09 07:07:49;;;;;;;5.33;3.00;;;;;;;;;;5088713;28;20465;-68
2021/04/09 07:10:16;;;;;;;1.93;1.40;;;;;;;;;;5089317;28;20384;-68
2021/04/09 07:12:42;;;;;;;1.77;1.57;;;;;;;;;;5092063;28;20955;-69
2021/04/09 07:15:09;;;;;;;4.33;4.03;;;;;;;;;;5093060;28;20421;-67
2021/04/09 07:17:38;;;;;;;2.80;1.13;;;;;;;;;;5093489;28;20680;-68
2021/04/09 07:20:18;;;;;;;4.20;1.67;;;;;;;;;;5093092;28;20413;-69
2021/04/09 07:22:50;;;;;;;1.63;0.80;;;;;;;;;;5092380;28;20478;-67
2021/04/09 07:25:18;;;;;;;6.33;1.97;;;;;;;;;;5093336;28;20399;-67
2021/04/09 07:27:45;;;;;;;2.37;2.00;;;;;;;;;;5086035;28;20927;-66
2021/04/09 07:30:14;;;;;;;2.03;1.83;;;;;;;;;;5091276;28;20394;-68
2021/04/09 07:32:40;;;;;;;5.20;2.63;;;;;;;;;;5070565;28;20449;-68
2021/04/09 07:35:13;;;;;;;5.00;1.60;;;;;;;;;;5091042;28;20495;-68
2021/04/09 07:37:55;;;;;;;4.87;2.60;;;;;;;;;;5094594;28;20403;-68
2021/04/09 07:40:32;;;;;;;3.90;1.93;;;;;;;;;;5098079;28;20451;-71
2021/04/09 07:42:59;;;;;;;3.57;2.30;;;;;;;;;;5091489;28;20382;-68
2021/04/09 07:45:26;;;;;;;3.70;1.60;;;;;;;;;;5074395;28;20437;-69
2021/04/09 07:47:58;;;;;;;1.37;1.27;;;;;;;;;;5091365;28;20930;-69
2021/04/09 07:50:36;;;;;;;2.00;1.43;;;;;;;;;;5093726;28;20835;-70
2021/04/09 07:53:02;;;;;;;1.63;1.53;;;;;;;;;;5092381;28;20454;-68
2021/04/09 07:55:30;;;;;;;2.67;1.60;;;;;;;;;;5091930;28;20470;-68
2021/04/09 07:58:11;;;;;;;2.33;2.07;;;;;;;;;;5089930;28;20412;-68
2021/04/09 08:00:37;;;;;;;3.83;1.43;;;;;;;;;;5093327;28;20449;-68
2021/04/09 08:03:03;;;;;;;2.00;1.63;;;;;;;;;;5096860;28;20473;-68
2021/04/09 08:05:29;;;;;;;7.70;4.00;;;;;;;;;;5088771;28;20534;-68
2021/04/09 08:07:55;;;;;;;1.80;1.03;;;;;;;;;;5092820;28;20487;-68
2021/04/09 08:10:31;;;;;;;1.60;1.50;;;;;;;;;;5092448;28;20412;-69
2021/04/09 08:12:58;;;;;;;2.70;1.77;;;;;;;;;;5092666;28;20821;-68
2021/04/09 08:15:32;;;;;;;9.90;4.17;;;;;;;;;;5081283;28;20442;-69
2021/04/09 08:18:00;;;;;;;2.40;2.00;;;;;;;;;;5094254;28;20405;-68
2021/04/09 08:20:26;;;;;;;4.30;2.13;;;;;;;;;;5103641;28;20468;-69
2021/04/09 08:22:53;;;;;;;3.77;2.13;;;;;;;;;;5083089;28;20865;-69
2021/04/09 08:25:19;;;;;;;2.47;1.40;;;;;;;;;;5096293;28;20438;-67
2021/04/09 08:27:45;;;;;;;6.23;2.27;;;;;;;;;;5084124;28;20409;-69
2021/04/09 08:30:12;;;;;;;2.70;2.00;;;;;;;;;;5069353;28;20400;-69
2021/04/09 08:32:38;;;;;;;2.63;2.00;;;;;;;;;;5083517;28;20488;-69
2021/04/09 08:35:07;;;;;;;2.23;2.00;;;;;;;;;;5105285;28;20460;-69
2021/04/09 08:37:33;;;;;;;4.40;2.53;;;;;;;;;;5092733;28;20931;-69
2021/04/09 08:40:00;;;;;;;3.13;2.83;;;;;;;;;;5092089;28;20478;-69
2021/04/09 08:42:26;;;;;;;5.40;3.03;;;;;;;;;;5089752;28;20437;-68
2021/04/09 08:44:52;;;;;;;2.53;1.80;;;;;;;;;;5092717;28;20411;-69
2021/04/09 08:47:19;;;;;;;5.53;2.80;;;;;;;;;;5109187;28;20428;-68
2021/04/09 08:49:45;;;;;;;3.23;2.07;;;;;;;;;;5079176;28;20885;-69
2021/04/09 08:52:13;;;;;;;2.80;2.27;;;;;;;;;;5077235;28;20434;-69
2021/04/09 08:54:48;;;;;;;6.13;3.13;;;;;;;;;;5080870;28;20437;-69
2021/04/09 08:57:26;;;;;;;3.53;2.40;;;;;;;;;;5085196;28;20384;-68
2021/04/09 09:00:02;;;;;;;4.23;2.70;;;;;;;;;;5085068;28;20485;-69
2021/04/09 09:02:28;;;;;;;1.87;1.57;;;;;;;;;;5078046;28;20477;-68
2021/04/09 09:04:58;;;;;;;4.43;2.77;;;;;;;;;;5098104;28;20429;-69
2021/04/09 09:07:43;;;;;;;5.17;4.40;;;;;;;;;;5092369;28;20400;-68
2021/04/09 09:10:24;;;;;;;2.60;1.40;;;;;;;;;;5086807;28;20433;-68
2021/04/09 09:13:06;;;;;;;4.20;2.03;;;;;;;;;;5075778;28;20950;-69
2021/04/09 09:15:44;;;;;;;2.63;2.00;;;;;;;;;;5069372;28;20637;-70
2021/04/09 09:18:22;;;;;;;4.00;2.53;;;;;;;;;;5090224;28;20503;-68
2021/04/09 09:21:03;;;;;;;2.70;1.80;;;;;;;;;;5091194;28;20438;-67
2021/04/09 09:23:48;;;;;;;12.53;2.80;;;;;;;;;;5079143;28;20442;-69
2021/04/09 09:26:33;;;;;;;3.77;3.33;;;;;;;;;;5082818;28;20413;-69
2021/04/09 09:29:11;;;;;;;10.80;3.20;;;;;;;;;;5083156;28;20443;-67
2021/04/09 09:31:38;;;;;;;3.33;2.80;;;;;;;;;;5071976;28;20453;-68
2021/04/09 09:34:38;;;;;;;2.20;1.93;;;;;;;;;;5099343;28;20410;-69
2021/04/09 09:37:13;;;;;;;2.57;1.87;;;;;;;;;;5104870;28;20376;-69
2021/04/09 09:39:57;;;;;;;2.80;2.30;;;;;;;;;;5088883;28;20383;-69
2021/04/09 09:42:26;;;;;;;3.20;1.97;;;;;;;;;;5067243;28;20522;-68
2021/04/09 09:44:52;;;;;;;8.60;5.97;;;;;;;;;;5086031;28;20872;-68
2021/04/09 09:47:20;;;;;;;2.70;2.23;;;;;;;;;;5081580;28;20573;-68
2021/04/09 09:50:04;;;;;;;3.90;3.00;;;;;;;;;;5085676;28;20544;-68
2021/04/09 09:52:42;;;;;;;6.00;2.20;;;;;;;;;;5100573;28;20444;-68
2021/04/09 09:55:09;;;;;;;3.00;2.80;;;;;;;;;;5072149;28;20433;-69
2021/04/09 09:57:44;;;;;;;3.50;2.17;;;;;;;;;;5082649;28;20747;-68
2021/04/09 10:00:11;;;;;;;6.53;2.53;;;;;;;;;;5084022;28;20412;-69
2021/04/09 10:02:37;;;;;;;7.80;3.13;;;;;;;;;;5083140;28;21519;-67
2021/04/09 10:05:03;;;;;;;2.57;2.30;;;;;;;;;;5084712;28;20948;-67
2021/04/09 10:07:29;;;;;;;1.43;1.33;;;;;;;;;;5092495;28;20394;-67
2021/04/09 10:09:56;;;;;;;3.63;1.73;;;;;;;;;;5073026;28;20391;-69
2021/04/09 10:12:22;;;;;;;2.57;2.37;;;;;;;;;;5074827;28;20448;-67
2021/04/09 10:14:48;;;;;;;2.90;1.53;;;;;;;;;;5090952;28;20420;-67
2021/04/09 10:17:14;;;;;;;10.90;4.10;;;;;;;;;;5079306;28;20407;-67
2021/04/09 10:19:56;;;;;;;5.07;2.43;;;;;;;;;;5097336;28;20796;-70
2021/04/09 10:22:22;;;;;;;2.00;1.80;;;;;;;;;;5109990;28;20446;-68
2021/04/09 10:24:48;;;;;;;2.57;2.10;;;;;;;;;;5091118;28;20932;-68
2021/04/09 10:27:14;;;;;;;2.80;1.90;;;;;;;;;;5092497;28;20426;-68
2021/04/09 10:29:40;;;;;;;2.07;1.60;;;;;;;;;;5087072;28;20421;-68
2021/04/09 10:32:15;;;;;;;2.27;2.00;;;;;;;;;;5085768;28;20965;-68
2021/04/09 10:34:41;;;;;;;2.70;2.40;;;;;;;;;;5082367;28;20494;-68
2021/04/09 10:37:07;;;;;;;2.70;2.50;;;;;;;;;;5083890;28;20413;-68
2021/04/09 10:39:33;;;;;;;1.60;1.50;;;;;;;;;;5081150;28;20862;-67
2021/04/09 10:42:03;;;;;;;3.63;2.47;;;;;;;;;;5083773;28;20376;-67
2021/04/09 10:44:31;;;;;;;3.03;2.83;;;;;;;;;;5065985;28;20464;-67
2021/04/09 10:46:58;;;;;;;1.60;1.40;;;;;;;;;;5087066;28;20913;-66
2021/04/09 10:49:25;;;;;;;3.20;2.20;;;;;;;;;;5072838;28;20413;-69
2021/04/09 10:51:54;;;;;;;2.47;1.73;;;;;;;;;;5100774;28;20977;-68
2021/04/09 10:54:25;;;;;;;4.07;2.23;;;;;;;;;;5090970;28;20437;-68
2021/04/09 10:56:54;;;;;;;3.43;1.70;;;;;;;;;;5081608;28;20777;-68
2021/04/09 10:59:21;;;;;;;1.83;1.73;;;;;;;;;;5078184;28;20432;-67
2021/04/09 11:01:47;;;;;;;4.53;2.47;;;;;;;;;;5083291;28;20431;-69
2021/04/09 11:04:14;;;;;;;3.00;2.00;;;;;;;;;;5072230;28;21128;-69
2021/04/09 11:06:40;;;;;;;4.67;2.10;;;;;;;;;;5081198;28;20468;-68
2021/04/09 11:09:07;;;;;;;5.20;3.03;;;;;;;;;;5090277;28;20440;-68
2021/04/09 11:11:39;;;;;;;2.23;2.03;;;;;;;;;;5083490;28;20413;-69
2021/04/09 11:14:09;;;;;;;2.90;1.67;;;;;;;;;;5085126;28;20938;-69
2021/04/09 11:16:48;;;;;;;7.40;2.00;;;;;;;;;;5080628;28;20409;-68
2021/04/09 11:19:40;;;;;;;4.43;3.10;;;;;;;;;;5083333;28;20943;-69
2021/04/09 11:22:07;;;;;;;2.23;2.03;;;;;;;;;;5075845;28;20774;-68
2021/04/09 11:24:37;;;;;;;2.27;2.07;;;;;;;;;;5085156;28;20392;-67
2021/04/09 11:27:17;;;;;;;3.57;2.73;;;;;;;;;;5087181;28;20400;-68
2021/04/09 11:29:43;;;;;;;3.70;1.80;;;;;;;;;;5084793;28;20391;-69
2021/04/09 11:32:17;;;;;;;4.67;1.93;;;;;;;;;;5085094;28;20981;-69
2021/04/09 11:34:44;;;;;;;2.07;1.53;;;;;;;;;;5063731;28;20429;-69
2021/04/09 11:37:10;;;;;;;2.23;1.30;;;;;;;;;;5097630;28;20481;-68
2021/04/09 11:39:47;;;;;;;2.87;1.97;;;;;;;;;;5107271;28;20412;-69
2021/04/09 11:42:13;;;;;;;7.17;3.37;;;;;;;;;;5104178;28;20399;-69
2021/04/09 11:44:40;;;;;;;4.03;1.87;;;;;;;;;;5113405;28;20436;-68
2021/04/09 11:47:13;;;;;;;2.10;1.90;;;;;;;;;;5110990;28;20386;-68
2021/04/09 11:49:39;;;;;;;3.30;1.43;;;;;;;;;;5066173;28;20552;-67
2021/04/09 11:52:08;;;;;;;2.50;2.00;;;;;;;;;;5103488;28;20461;-68
2021/04/09 11:54:36;;;;;;;3.67;2.40;;;;;;;;;;5100219;28;20396;-69
2021/04/09 11:57:02;;;;;;;2.97;1.33;;;;;;;;;;5111898;28;20513;-69
2021/04/09 11:59:33;;;;;;;2.97;2.40;;;;;;;;;;5113745;28;20405;-68
2021/04/09 12:02:14;;;;;;;4.93;2.40;;;;;;;;;;5067742;28;20389;-66
2021/04/09 12:04:40;;;;;;;2.60;1.80;;;;;;;;;;5089200;28;20506;-68
2021/04/09 12:07:12;;;;;;;5.77;2.57;;;;;;;;;;5093668;28;20839;-69
2021/04/09 12:09:39;;;;;;;4.30;1.67;;;;;;;;;;5110249;28;20435;-72
2021/04/09 12:12:05;;;;;;;2.70;1.10;;;;;;;;;;5101929;28;20412;-71
2021/04/09 12:14:35;;;;;;;18.90;2.67;;;;;;;;;;5100854;28;20446;-68
2021/04/09 12:17:02;;;;;;;1.70;1.60;;;;;;;;;;5111224;28;20462;-67
2021/04/09 12:19:28;;;;;;;3.40;1.60;;;;;;;;;;5105517;28;20392;-68
2021/04/09 12:21:54;;;;;;;2.43;2.07;;;;;;;;;;5096732;28;20411;-68
2021/04/09 12:24:20;;;;;;;2.30;1.50;;;;;;;;;;5089690;28;20989;-68
2021/04/09 12:26:46;;;;;;;1.93;1.40;;;;;;;;;;5085191;28;20403;-68
2021/04/09 12:29:12;;;;;;;2.40;1.80;;;;;;;;;;5066448;28;20406;-67
2021/04/09 12:31:38;;;;;;;4.90;1.60;;;;;;;;;;5086070;28;20372;-68
2021/04/09 12:34:04;;;;;;;1.73;1.63;;;;;;;;;;5093069;28;20450;-68
2021/04/09 12:36:30;;;;;;;1.53;1.10;;;;;;;;;;5081266;28;20458;-68
2021/04/09 12:38:56;;;;;;;2.33;2.13;;;;;;;;;;5080816;28;20434;-69
2021/04/09 12:41:22;;;;;;;2.00;1.80;;;;;;;;;;5087429;28;21054;-69
2021/04/09 12:43:51;;;;;;;1.50;1.30;;;;;;;;;;5099780;28;20874;-69
2021/04/09 12:46:17;;;;;;;2.27;2.03;;;;;;;;;;5112271;28;20405;-69
2021/04/09 12:48:43;;;;;;;2.07;1.10;;;;;;;;;;5105857;28;20921;-69
2021/04/09 12:51:09;;;;;;;2.20;1.77;;;;;;;;;;5092161;28;20431;-68
2021/04/09 12:53:36;;;;;;;3.73;1.90;;;;;;;;;;5111035;28;20450;-69
2021/04/09 12:56:01;;;;;;;1.70;1.30;;;;;;;;;;5088082;28;20433;-69
2021/04/09 12:58:27;;;;;;;2.17;1.63;;;;;;;;;;5108661;28;20915;-68
2021/04/09 13:00:53;;;;;;;1.93;1.63;;;;;;;;;;5079724;28;20423;-67
2021/04/09 13:03:19;;;;;;;2.77;2.47;;;;;;;;;;5094949;28;20932;-68
2021/04/09 13:05:45;;;;;;;2.27;2.07;;;;;;;;;;5111620;28;20805;-68
2021/04/09 13:08:15;;;;;;;3.37;1.40;;;;;;;;;;5102106;28;20489;-69
2021/04/09 13:10:41;;;;;;;7.90;1.83;;;;;;;;;;5082008;28;20591;-67
2021/04/09 13:13:07;;;;;;;1.93;1.53;;;;;;;;;;5108487;28;20451;-69
2021/04/09 13:15:33;;;;;;;1.40;0.93;;;;;;;;;;5111626;28;20541;-68
2021/04/09 13:17:59;;;;;;;2.60;1.90;;;;;;;;;;5102581;28;20554;-68
2021/04/09 13:20:25;;;;;;;2.00;1.90;;;;;;;;;;5111333;28;20450;-69
2021/04/09 13:22:51;;;;;;;1.27;1.00;;;;;;;;;;5098446;28;20476;-68
2021/04/09 13:25:17;;;;;;;3.53;1.63;;;;;;;;;;5111435;28;20434;-69
2021/04/09 13:27:42;;;;;;;2.80;2.00;;;;;;;;;;5103885;28;20390;-69
2021/04/09 13:30:09;;;;;;;2.73;2.33;;;;;;;;;;5068737;28;20519;-68
2021/04/09 13:32:35;;;;;;;3.93;1.70;;;;;;;;;;5071265;28;20449;-67
2021/04/09 13:35:01;;;;;;;6.73;2.60;;;;;;;;;;5091221;28;20446;-68
2021/04/09 13:37:27;;;;;;;3.60;2.63;;;;;;;;;;5084329;22;20497;-71
2021/04/09 13:39:53;;;;;;;1.60;1.43;;;;;;;;;;5058676;28;20397;-71
2021/04/09 13:42:19;;;;;;;2.47;2.10;;;;;;;;;;5050754;28;20423;-70
2021/04/09 13:44:45;;;;;;;1.93;1.73;;;;;;;;;;5050819;28;20759;-69
2021/04/09 13:47:11;;;;;;;5.63;2.27;;;;;;;;;;5072625;28;20941;-70
2021/04/09 13:49:37;;;;;;;2.70;2.07;;;;;;;;;;5074154;28;20784;-70
2021/04/09 13:52:03;;;;;;;1.10;1.00;;;;;;;;;;5076701;28;20831;-70
2021/04/09 13:54:29;;;;;;;1.30;1.20;;;;;;;;;;5067998;28;20414;-70
2021/04/09 13:56:55;;;;;;;7.00;1.97;;;;;;;;;;5078109;28;20934;-70
2021/04/09 13:59:21;;;;;;;1.37;0.90;;;;;;;;;;5086233;28;20422;-70
2021/04/09 14:01:47;;;;;;;4.27;2.37;;;;;;;;;;5069923;28;20384;-70
2021/04/09 14:04:13;;;;;;;2.70;1.77;;;;;;;;;;5070210;28;20411;-70
2021/04/09 14:06:39;;;;;;;2.50;2.30;;;;;;;;;;5084288;28;20508;-69
2021/04/09 14:09:05;;;;;;;3.13;1.03;;;;;;;;;;5080214;28;20970;-70
2021/04/09 14:11:31;;;;;;;4.97;2.40;;;;;;;;;;5069194;28;20403;-70
2021/04/09 14:13:57;;;;;;;1.40;1.30;;;;;;;;;;5078804;28;20965;-70
2021/04/09 14:16:23;;;;;;;4.27;2.30;;;;;;;;;;5048698;28;20857;-70
2021/04/09 14:18:49;;;;;;;2.50;2.07;;;;;;;;;;5085122;28;20439;-69
2021/04/09 14:21:15;;;;;;;2.80;1.83;;;;;;;;;;5066962;28;20465;-71
2021/04/09 14:23:41;;;;;;;2.03;1.60;;;;;;;;;;5083091;28;20884;-70
2021/04/09 14:26:07;;;;;;;2.00;1.50;;;;;;;;;;5079344;28;20464;-70
2021/04/09 14:28:33;;;;;;;1.43;1.33;;;;;;;;;;5086109;28;20926;-71
2021/04/09 14:30:59;;;;;;;1.10;1.00;;;;;;;;;;5072189;28;20381;-70
2021/04/09 14:33:25;;;;;;;0.73;0.50;;;;;;;;;;5074227;28;20452;-71
2021/04/09 14:35:53;;;;;;;0.80;0.60;;;;;;;;;;5079580;28;20419;-71
2021/04/09 14:38:19;;;;;;;0.70;0.50;;;;;;;;;;5087961;28;20418;-72
2021/04/09 14:40:45;;;;;;;1.00;0.60;;;;;;;;;;5073848;28;20384;-69
2021/04/09 14:43:11;;;;;;;0.90;0.70;;;;;;;;;;5073452;28;20429;-71
2021/04/09 14:45:37;;;;;;;0.80;0.50;;;;;;;;;;5083663;28;20473;-71
2021/04/09 14:48:04;;;;;;;1.83;0.70;;;;;;;;;;5071468;28;20423;-71
2021/04/09 14:50:30;;;;;;;1.10;0.70;;;;;;;;;;5068516;28;20397;-71